Tiempo atmosférico en la estación meteorológica de Monesterio, Badajoz (750 m.)



Fecha
DESCASC
Temp. máxima en grados centígrados (hora)
DESCASC
Temp. mínima en grados centígrados (hora)
DESCASC
Temp. media en grados centígrados
DESCASC
Racha de viento máxima en m/sg (hora)
DESCASC
Velocidad máxima media en intervalos de 10 minutos(hora)
DESCASC
Precipitaciones diarias en mm
DESCASC
Precipitaciones de 00:00 a 06:00 en mm
DESCASC
Precipitaciones de 06:00 a 12:00 en mm
DESCASC
Precipitaciones de 12:00 a 18:00 en mm
DESCASC
Precipitaciones de 18:00 a 24:00 en mm
DESCASC
05-04-2020 15.3 (15:50) 9.3 (08:00) 12.3 12.78 (11:40) 7.22 (03:40) 0.6 0 0 0.4 0.2
04-04-2020 12.7 (13:40) 6.9 (08:10) 9.8 13.89 (10:20) 7.5 (10:40) 0 0 0 0 0
03-04-2020 17 (18:10) 6.8 (07:30) 11.9 6.39 (01:10) 3.89 (01:10) 0 0 0 0 0
02-04-2020 11.5 (18:20) 3.8 (00:00) 7.6 9.72 (17:50) 4.17 (14:30) 4.8 4.6 0.2 0 0
01-04-2020 10.6 (14:40) 1.7 (00:00) 6.2 9.17 (23:10) 5.28 (23:10) 2.6 0 0.2 1.8 0.6
31-03-2020 12.1 (14:10) 5.7 (00:00) 8.9 9.72 (13:10) 5.56 (01:20) 37.2 17.6 6 11.8 1.8
30-03-2020 12.6 (14:40) 5.9 (00:00) 9.3 8.61 (16:40) 5 (16:40) 7.2 0 0 5.8 1.4
29-03-2020 14.2 (17:00) 5.9 (00:00) 10 6.67 (18:50) 3.33 (19:00) 0 0 0 0 0
28-03-2020 14.2 (14:40) 1.9 (00:00) 8 6.94 (14:00) 3.61 (04:50) 0 0 0 0 0
27-03-2020 12.2 (12:20) 2.4 (00:00) 7.3 7.5 (06:20) 5.28 (06:20) 0 0 0 0 0
26-03-2020 15.9 (15:10) 7 (00:00) 11.4 10.28 (15:30) 5.83 (16:50) 0 0 0 0 0
25-03-2020 15.5 (15:10) 7 (00:00) 11.3 7.78 (21:30) 4.44 (21:30) 0 0 0 0 0
24-03-2020 14.8 (15:40) 5.7 (00:00) 10.3 9.17 (10:00) 5.28 (13:30) 0 0 0 0 0
23-03-2020 12 (14:30) 5.3 (00:00) 8.7 10.28 (16:20) 6.67 (16:20) 3.8 0.2 0 0.2 3.4
22-03-2020 11.3 (16:50) 4.6 (03:50) 8 8.06 (15:00) 4.17 (15:00) 0.8 0 0 0 0.8
21-03-2020 9.2 (00:00) 3.9 (00:00) 6.5 14.72 (00:50) 5.83 (00:30) 13.6 8 0 4 1.6
20-03-2020 13.7 (14:30) 8.7 (00:00) 11.2 10.83 (23:30) 5.83 (23:20) 26.2 0 0 1.6 24.6
19-03-2020 16.9 (16:20) 7.2 (00:00) 12 9.17 (02:30) 5.56 (02:30) 0 0 0 0 0
18-03-2020 18.2 (17:00) 7.7 (00:00) 13 8.61 (10:10) 5 (05:40) 0 0 0 0 0
17-03-2020 13.3 (16:50) 2.5 (00:00) 7.9 11.39 (14:20) 6.67 (14:20) 2.8 1.2 1.4 0 0.2
16-03-2020 8.7 (14:30) 1.1 (00:00) 4.9 14.72 (17:30) 7.78 (14:40) 5.6 0 0 0.8 4.8
15-03-2020 19.3 (15:20) 7 (00:00) 13.1 11.11 (23:40) 5.56 (23:40) 0 0 0 0 0
14-03-2020 21.6 (15:10) 8.1 (00:00) 14.9 5.56 (15:10) 3.06 (11:30) 0.4 0 0 0.4 0
13-03-2020 20.7 (16:30) 9.7 (05:00) 15.2 6.67 (14:20) 3.89 (14:10) 0 0 0 0 0
12-03-2020 21.8 (14:30) 11.4 (00:00) 16.6 12.78 (09:50) 8.06 (09:50) 0 0 0 0 0
11-03-2020 24.7 (13:40) 12 (00:00) 18.4 7.22 (23:59) 4.72 (11:40) 0 0 0 0 0
10-03-2020 23.5 (14:40) 8.5 (00:00) 16 6.94 (10:40) 4.17 (11:20) 0 0 0 0 0
09-03-2020 17.6 (15:30) 6.2 (00:00) 11.9 8.61 (18:30) 5.28 (17:20) 0 0 0 0 0
08-03-2020 18.6 (15:30) 3.6 (00:00) 11.1 6.67 (16:50) 3.61 (16:10) 0 0 0 0 0

Gráficas

Temp. máximas Temp. mínimas Temp. medias Precipitaciones Rachas de viento máximas Velocidades máximas media en intervalos de 10 minutos

Datos horarios

Fecha y hora oficial Temperatura (ºC) Velocidad del viento (km/h) Dirección del viento Racha (km/h) Dirección de racha Precipitación (mm) Presión (hPa) Tendencia (hPa) Humedad (%)
2020-04-06 23:00:00 12.6 5 Sur 20 Sur 0 -- -- 95
2020-04-06 22:00:00 12.7 8 Sur 19 Sur 0 -- -- 96
2020-04-06 21:00:00 12.8 6 Sudoeste 17 Sudoeste 0 -- -- 95
2020-04-06 20:00:00 12.8 6 Sur 20 Sudeste 0 -- -- 98
2020-04-06 19:00:00 12.7 9 Sur 22 Sudoeste 0 -- -- 98
2020-04-06 18:00:00 12.7 8 Sur 21 Sudeste 0.2 -- -- 98
2020-04-06 17:00:00 12.8 6 Sudeste 20 Sudeste 0.4 -- -- 98
2020-04-06 16:00:00 12.9 7 Sudeste 18 Sudoeste 0 -- -- 97
2020-04-06 15:00:00 13.6 9 Sur 27 Sur 0 -- -- 93
2020-04-06 14:00:00 13.9 10 Sur 27 Sudoeste 0 -- -- 94
2020-04-06 13:00:00 13 9 Sur 32 Sudoeste 0 -- -- 96
2020-04-06 12:00:00 12.8 14 Sur 30 Sur 0 -- -- 96
2020-04-06 11:00:00 11.5 8 Sudeste 22 Sur 0 -- -- 100
2020-04-06 10:00:00 10.9 9 Sur 18 Sur 0 -- -- 99
2020-04-06 09:00:00 10.6 8 Sur 19 Sudoeste 0 -- -- 100
2020-04-06 08:00:00 10.6 5 Sur 18 Sur 0 -- -- 99
2020-04-06 07:00:00 10.7 3 Sur 14 Sur 0 -- -- 99
2020-04-06 06:00:00 10.9 4 Sur 13 Sudoeste 0.2 -- -- 99
2020-04-06 05:00:00 11 6 Sur 21 Sur 0 -- -- 98
2020-04-06 04:00:00 11.3 9 Sur 19 Sudoeste 0.4 -- -- 98
2020-04-06 03:00:00 11.4 8 Sur 22 Sur 1.2 -- -- 99
2020-04-06 02:00:00 11.5 14 Sur 31 Sur 0.2 -- -- 99
2020-04-06 01:00:00 11.6 18 Sur 37 Sur 0 -- -- 98
2020-04-06 00:00:00 11.7 16 Sur 37 Sur 0.2 -- -- 97
2020-04-05 23:00:00 12.1 15 Sur 43 Sudoeste 0 -- -- 96
2020-04-05 22:00:00 12.4 18 Sur 40 Sudoeste 0 -- -- 93
2020-04-05 21:00:00 12.6 21 Sur 42 Sur 0 -- -- 90
2020-04-05 20:00:00 13.1 20 Sur 39 Sudoeste 0 -- -- 88
2020-04-05 19:00:00 14 23 Sur 40 Sur 0 -- -- 82
2020-04-05 18:00:00 13.8 15 Sur 29 Sur 0.4 -- -- 87
2020-04-05 17:00:00 14.5 13 Sur 28 Sudoeste 0 -- -- 79
2020-04-05 16:00:00 15.3 10 Sur 33 Sur 0 -- -- 74
2020-04-05 15:00:00 14.6 16 Sur 44 Sur 0 -- -- 73
2020-04-05 14:00:00 15 23 Sur 41 Sudeste 0 -- -- 68
2020-04-05 13:00:00 14.9 18 Sur 43 Sudeste 0 -- -- 70
2020-04-05 12:00:00 14 21 Sur 46 Sudoeste 0 -- -- 70
2020-04-05 11:00:00 12.6 13 Sudeste 30 Sudeste 0 -- -- 74
2020-04-05 10:00:00 10.7 9 Sudeste 31 Sur 0 -- -- 78
2020-04-05 09:00:00 10.2 15 Sur 44 Sur 0 -- -- 79
2020-04-05 08:00:00 9.3 23 Sur 44 Sudoeste 0 -- -- 81
2020-04-05 07:00:00 9.8 25 Sur 45 Sur 0 -- -- 79
2020-04-05 06:00:00 10.1 21 Sur 42 Sur 0 -- -- 78
2020-04-05 05:00:00 10.2 22 Sur 45 Sur 0 -- -- 75
2020-04-05 04:00:00 9.8 23 Sur 44 Sur 0 -- -- 82
2020-04-05 03:00:00 9.5 20 Sur 33 Sur 0 -- -- 86
2020-04-05 02:00:00 9.7 14 Sudeste 31 Sur 0 -- -- 86
2020-04-05 01:00:00 9.7 16 Sur 35 Sudeste 0 -- -- 85
2020-04-05 00:00:00 9.8 17 Sur 29 Sudeste 0 -- -- 87
2020-04-04 23:00:00 9.9 10 Sudeste 20 Sudeste 0 -- -- 86
2020-04-04 22:00:00 10.2 7 Sudeste 15 Sudeste 0 -- -- 84
2020-04-04 21:00:00 10.9 6 Sudeste 15 Sudeste 0 -- -- 81
2020-04-04 20:00:00 11.7 9 Sudeste 15 Sudeste 0 -- -- 81
2020-04-04 19:00:00 11.6 9 Sudeste 20 Sudeste 0 -- -- 79
2020-04-04 18:00:00 12.5 14 Sudeste 24 Sudeste 0 -- -- 69
2020-04-04 17:00:00 12.2 13 Sudeste 26 Sudeste 0 -- -- 70
2020-04-04 16:00:00 12.1 15 Sudeste 26 Sudeste 0 -- -- 67
2020-04-04 15:00:00 12 16 Sudeste 36 Sudeste 0 -- -- 64
2020-04-04 14:00:00 12.6 18 Sudeste 36 Sudeste 0 -- -- 62
2020-04-04 13:00:00 11.9 16 Sudeste 37 Sudeste 0 -- -- 65
2020-04-04 12:00:00 10.9 18 Sudeste 40 Sudeste 0 -- -- 66
2020-04-04 11:00:00 10.2 24 Sudeste 50 Sudeste 0 -- -- 67
2020-04-04 10:00:00 9.5 23 Sudeste 47 Sur 0 -- -- 67
2020-04-04 09:00:00 9.3 26 Sudeste 42 Sudeste 0 -- -- 66
2020-04-04 08:00:00 7.3 12 Sudeste 36 Sudeste 0 -- -- 74
2020-04-04 07:00:00 7.9 25 Sudeste 42 Sudeste 0 -- -- 71
2020-04-04 06:00:00 8 23 Sudeste 42 Sudeste 0 -- -- 72
2020-04-04 05:00:00 8 16 Sudeste 43 Sudeste 0 -- -- 74
2020-04-04 04:00:00 7.3 12 Sudeste 20 Sudeste 0 -- -- 81
2020-04-04 03:00:00 8.1 8 Sudeste 18 Sudeste 0 -- -- 79
2020-04-04 02:00:00 8.6 7 Sudeste 15 Sudeste 0 -- -- 84
2020-04-04 01:00:00 9 7 Sur 18 Sudeste 0 -- -- 80
2020-04-04 00:00:00 9.7 9 Sur 19 Sudeste 0 -- -- 76
2020-04-03 23:00:00 10 7 Sur 10 Sur 0 -- -- 75
2020-04-03 22:00:00 10.6 7 Sur 11 Sur 0 -- -- 74
2020-04-03 21:00:00 12.3 6 Sur 14 Sur 0 -- -- 69
2020-04-03 20:00:00 15.1 9 Sudeste 18 Sudeste 0 -- -- 59
2020-04-03 19:00:00 16.1 10 Sudeste 19 Sudeste 0 -- -- 56
2020-04-03 18:00:00 16.9 9 Sur 17 Este 0 -- -- 52
2020-04-03 17:00:00 16.7 7 Sudeste 16 Sudeste 0 -- -- 52
2020-04-03 16:00:00 16.5 9 Sudeste 19 Este 0 -- -- 54
2020-04-03 15:00:00 15.3 5 Este 15 Este 0 -- -- 53
2020-04-03 14:00:00 13.7 3 Sur 13 Sur 0 -- -- 59
2020-04-03 13:00:00 13.4 8 Sudoeste 15 Sudoeste 0 -- -- 64
2020-04-03 12:00:00 14.3 9 Sur 15 Sur 0 -- -- 58
2020-04-03 11:00:00 14 4 Sur 11 Sudoeste 0 -- -- 54
2020-04-03 10:00:00 12.2 3 Norte 5 Noroeste 0 -- -- 67
2020-04-03 09:00:00 9 3 Sudoeste 8 Oeste 0 -- -- 84
2020-04-03 08:00:00 6.9 5 Oeste 9 Sudoeste 0 -- -- 88
2020-04-03 07:00:00 7.1 6 Sudoeste 10 Oeste 0 -- -- 88
2020-04-03 06:00:00 7.3 7 Oeste 12 Oeste 0 -- -- 88
2020-04-03 05:00:00 7.7 9 Oeste 13 Oeste 0 -- -- 88
2020-04-03 04:00:00 7.8 7 Oeste 14 Oeste 0 -- -- 88
2020-04-03 03:00:00 8 10 Oeste 22 Oeste 0 -- -- 85
2020-04-03 02:00:00 8.4 12 Oeste 23 Oeste 0 -- -- 83
2020-04-03 01:00:00 8.3 10 Oeste 19 Oeste 0 -- -- 80
2020-04-03 00:00:00 8.7 11 Oeste 22 Oeste 0 -- -- 78
2020-04-02 23:00:00 8.4 10 Oeste 17 Oeste 0 -- -- 77
2020-04-02 22:00:00 8.5 8 Oeste 14 Oeste 0 -- -- 79
2020-04-02 21:00:00 9.3 8 Oeste 21 Norte 0 -- -- 75
2020-04-02 20:00:00 11 11 Norte 19 Norte 0 -- -- 65
2020-04-02 19:00:00 11.2 12 Norte 24 Norte 0 -- -- 65
2020-04-02 18:00:00 11.2 12 Norte 35 Norte 0 -- -- 67
2020-04-02 17:00:00 10.9 14 Norte 24 Noroeste 0 -- -- 72
2020-04-02 16:00:00 9.9 13 Nordeste 27 Norte 0 -- -- 73
2020-04-02 15:00:00 9.4 12 Norte 27 Norte 0 -- -- 78
2020-04-02 14:00:00 8.2 15 Norte 27 Norte 0 -- -- 80
2020-04-02 13:00:00 7.3 11 Norte 21 Nordeste 0 -- -- 87
2020-04-02 12:00:00 6.7 10 Norte 22 Norte 0 -- -- 91
2020-04-02 11:00:00 5.8 9 Norte 20 Norte 0 -- -- 98
2020-04-02 10:00:00 4.9 9 Norte 17 Norte 0 -- -- 100
2020-04-02 09:00:00 4.3 6 Norte 13 Norte 0 -- -- 100
2020-04-02 08:00:00 4 3 Noroeste 11 Norte 0.2 -- -- 99
2020-04-02 07:00:00 4.1 5 Noroeste 12 Oeste 0 -- -- 98
2020-04-02 06:00:00 4.4 5 Oeste 10 Noroeste 0 -- -- 98
2020-04-02 05:00:00 5 4 Oeste 8 Oeste 0 -- -- 97
2020-04-02 04:00:00 4.9 3 Sudoeste 10 Sur 0 -- -- 95
2020-04-02 03:00:00 5.6 6 Sudoeste 10 Sudoeste 0.4 -- -- 96
2020-04-02 02:00:00 6 4 Sudeste 26 Sudoeste 1.8 -- -- 95
2020-04-02 01:00:00 6.5 11 Sur 29 Sudeste 2.4 -- -- 97
2020-04-02 00:00:00 6.6 10 Sur 33 Sur 0.6 -- -- 95
2020-04-01 23:00:00 6.7 15 Sur 32 Sudoeste 0 -- -- 93
2020-04-01 22:00:00 6.8 14 Sur 27 Sur 0 -- -- 93
2020-04-01 21:00:00 7 11 Sur 23 Sudeste 0 -- -- 93
2020-04-01 20:00:00 7.5 8 Sur 24 Sudoeste 0 -- -- 89
2020-04-01 19:00:00 7.9 9 Sudeste 23 Sudeste 0 -- -- 88
2020-04-01 18:00:00 7.5 10 Sur 23 Sur 0.8 -- -- 88
2020-04-01 17:00:00 8.3 11 Sur 26 Sur 0 -- -- 89
2020-04-01 16:00:00 7.6 15 Sudoeste 30 Sur 1 -- -- 89
2020-04-01 15:00:00 9.4 14 Sur 23 Sur 0 -- -- 69
2020-04-01 14:00:00 9.7 10 Sur 22 Sudeste 0 -- -- 69
2020-04-01 13:00:00 9.3 9 Sudoeste 23 Sur 0 -- -- 68
2020-04-01 12:00:00 8.7 12 Sudoeste 22 Sur 0 -- -- 68
2020-04-01 11:00:00 8 9 Sudoeste 20 Sudoeste 0 -- -- 71
2020-04-01 10:00:00 5.9 6 Oeste 13 Sudoeste 0 -- -- 78
2020-04-01 09:00:00 2.7 7 Sudoeste 12 Sudoeste 0.2 -- -- 85
2020-04-01 08:00:00 1.9 6 Oeste 12 Oeste 0 -- -- 93
2020-04-01 07:00:00 1.9 4 Oeste 9 Oeste 0 -- -- 96
2020-04-01 06:00:00 2.1 7 Oeste 9 Oeste 0 -- -- 96
2020-04-01 05:00:00 2.3 3 Oeste 5 Sudoeste 0 -- -- 97
2020-04-01 04:00:00 3.3 3 Sudoeste 9 Oeste 0 -- -- 96
2020-04-01 03:00:00 4.4 6 Oeste 9 Oeste 0 -- -- 97
2020-04-01 02:00:00 4.9 3 Oeste 15 Oeste 0 -- -- 96
2020-04-01 01:00:00 4.9 8 Sudoeste 13 Sudoeste 0 -- -- 97
2020-04-01 00:00:00 5.7 5 Oeste 15 Oeste 0 -- -- 97
2020-03-31 23:00:00 6.3 5 Oeste 10 Oeste 0 -- -- 97
2020-03-31 22:00:00 6.4 2 Sudoeste 18 Sudoeste 0 -- -- 93
2020-03-31 21:00:00 8 3 Oeste 13 Oeste 0 -- -- 93
2020-03-31 20:00:00 8.9 3 Oeste 16 Sudoeste 0 -- -- 94
2020-03-31 19:00:00 8.6 9 Sur 20 Sur 1.8 -- -- 93
2020-03-31 18:00:00 9.2 11 Sudoeste 26 Sudoeste 1.6 -- -- 91
2020-03-31 17:00:00 8.7 15 Sudoeste 32 Sudoeste 1.6 -- -- 91
2020-03-31 16:00:00 8.4 14 Sudoeste 34 Oeste 7.2 -- -- 91
2020-03-31 15:00:00 10.8 10 Sudoeste 32 Sudoeste 0.8 -- -- 89
2020-03-31 14:00:00 11.5 17 Sur 35 Sur 0.6 -- -- 87
2020-03-31 13:00:00 10.8 11 Sur 30 Sudoeste 0 -- -- 89
2020-03-31 12:00:00 9.4 15 Sur 32 Sudoeste 0 -- -- 90
2020-03-31 11:00:00 8.5 13 Sur 27 Sudoeste 0 -- -- 96
2020-03-31 10:00:00 8.6 14 Sudoeste 27 Sudoeste 0 -- -- 93
2020-03-31 09:00:00 7.4 2 Oeste 26 Sudoeste 0.2 -- -- 99
2020-03-31 08:00:00 7.4 12 Sudoeste 23 Sudoeste 1.8 -- -- 100
2020-03-31 07:00:00 7.3 2 Sudoeste 14 Sudeste 4 -- -- 100
2020-03-31 06:00:00 7.1 8 Sudeste 18 Sudeste 7.8 -- -- 100
2020-03-31 05:00:00 7.2 6 Sudeste 23 Sudeste 5 -- -- 100
2020-03-31 04:00:00 7 12 Sudeste 32 Sudeste 3.6 -- -- 100
2020-03-31 03:00:00 7 14 Sudeste 30 Sudeste 0.8 -- -- 99
2020-03-31 02:00:00 6.9 17 Sudeste 34 Sur 0.4 -- -- 99
2020-03-31 01:00:00 6.6 18 Sudeste 34 Sudeste 0 -- -- 97
2020-03-31 00:00:00 6.7 13 Sudeste 30 Sur 0 -- -- 93
2020-03-30 23:00:00 6.5 14 Sudeste 31 Sur 0 -- -- 95
2020-03-30 22:00:00 6.3 6 Este 17 Sudeste 0 -- -- 97
2020-03-30 21:00:00 6.5 10 Sudeste 23 Sudeste 0 -- -- 95
2020-03-30 20:00:00 7.4 9 Sudeste 18 Este 0.2 -- -- 94
2020-03-30 19:00:00 7.9 5 Sudeste 8 Sudeste 1.2 -- -- 92
2020-03-30 18:00:00 8 0 Calma 15 Oeste 2.8 -- -- 93
2020-03-30 17:00:00 8 10 Sudoeste 31 Sudoeste 2.2 -- -- 91
2020-03-30 16:00:00 10.4 5 Sur 18 Sudeste 0.8 -- -- 85
2020-03-30 15:00:00 12.5 8 Sur 27 Sudeste 0 -- -- 67
2020-03-30 14:00:00 11.6 10 Sudeste 21 Sudeste 0 -- -- 73
2020-03-30 13:00:00 11.9 13 Sudeste 24 Sudeste 0 -- -- 76
2020-03-30 12:00:00 9.9 11 Sudeste 20 Sudeste 0 -- -- 87
2020-03-30 11:00:00 9.6 8 Sudeste 19 Sudeste 0 -- -- 90
2020-03-30 10:00:00 8.9 5 Sudeste 12 Sur 0 -- -- 92
2020-03-30 09:00:00 7.4 2 Sur 4 Sur 0 -- -- 94
2020-03-30 08:00:00 7.2 0 Calma 11 Sudoeste 0 -- -- 91
2020-03-30 07:00:00 7.1 8 Sudoeste 12 Sudoeste 0 -- -- 94
2020-03-30 06:00:00 5.9 6 Sudoeste 9 Sudoeste 0 -- -- 95
2020-03-30 05:00:00 6.5 3 Sudoeste 12 Sudoeste 0 -- -- 91
2020-03-30 04:00:00 7.9 7 Oeste 9 Oeste 0 -- -- 89
2020-03-30 03:00:00 7 4 Oeste 6 Sudoeste 0 -- -- 88
2020-03-30 02:00:00 8.5 6 Sudoeste 9 Sudoeste 0 -- -- 84
2020-03-30 01:00:00 8.8 6 Oeste 9 Oeste 0 -- -- 83
2020-03-30 00:00:00 9.8 5 Oeste 9 Oeste 0 -- -- 79
2020-03-29 23:00:00 10.1 2 Oeste 12 Sudoeste 0 -- -- 79
2020-03-29 22:00:00 10.3 4 Sudoeste 9 Oeste 0 -- -- 77
2020-03-29 21:00:00 10.1 3 Oeste 15 Sudoeste 0 -- -- 79
2020-03-29 20:00:00 10.8 8 Oeste 17 Oeste 0 -- -- 79
2020-03-29 19:00:00 12 12 Oeste 24 Oeste 0 -- -- 72
2020-03-29 18:00:00 13.6 4 Sur 9 Sudoeste 0 -- -- 63
2020-03-29 17:00:00 14.2 6 Sudeste 13 Sur 0 -- -- 63
2020-03-29 16:00:00 13 6 Oeste 12 Sudoeste 0 -- -- 66
2020-03-29 15:00:00 13.4 0 Calma 9 Sudoeste 0 -- -- 60
2020-03-29 14:00:00 12.7 2 Norte 8 Nordeste 0 -- -- 67
2020-03-29 13:00:00 12.4 3 Nordeste 10 Nordeste 0 -- -- 72
2020-03-29 12:00:00 12.8 4 Nordeste 9 Este 0 -- -- 70
2020-03-29 11:00:00 11.1 5 Norte 9 Norte 0 -- -- 78
2020-03-29 10:00:00 9.6 6 Noroeste 12 Oeste 0 -- -- 83
2020-03-29 09:00:00 6.9 8 Oeste 13 Oeste 0 -- -- 89
2020-03-29 08:00:00 6.6 6 Oeste 12 Oeste 0 -- -- 88
2020-03-29 07:00:00 5.9 5 Oeste 12 Noroeste 0 -- -- 86
2020-03-29 06:00:00 6.3 4 Oeste 7 Oeste 0 -- -- 86
2020-03-29 05:00:00 6.9 4 Sudoeste 10 Sudoeste 0 -- -- 83
2020-03-29 03:00:00 7.4 8 Oeste 12 Sudoeste 0 -- -- 84
2020-03-29 01:00:00 7.9 10 Sudoeste 13 Sudoeste 0 -- -- 80
2020-03-29 00:00:00 8 9 Sudoeste 13 Sudoeste 0 -- -- 77
2020-03-28 23:00:00 7.9 9 Sudoeste 11 Sudoeste 0 -- -- 76
2020-03-28 22:00:00 8.2 8 Sudoeste 11 Sudoeste 0 -- -- 73
2020-03-28 21:00:00 8 5 Sur 8 Sur 0 -- -- 68
2020-03-28 20:00:00 9.8 6 Sur 7 Sur 0 -- -- 64
2020-03-28 19:00:00 12.4 4 Sur 12 Sur 0 -- -- 57
2020-03-28 18:00:00 12.6 8 Sur 16 Sudeste 0 -- -- 57
2020-03-28 17:00:00 13.4 3 Este 19 Sudeste 0 -- -- 56
2020-03-28 16:00:00 12.9 5 Sudeste 15 Sudeste 0 -- -- 54
2020-03-28 15:00:00 13.3 5 Sudeste 19 Sudeste 0 -- -- 56
2020-03-28 14:00:00 13.8 10 Sudeste 25 Sudeste 0 -- -- 57
2020-03-28 13:00:00 12.3 9 Sudeste 21 Sudeste 0 -- -- 61
2020-03-28 12:00:00 11.5 10 Sur 18 Sudeste 0 -- -- 71
2020-03-28 11:00:00 11 9 Sudeste 21 Sudeste 0 -- -- 71
2020-03-28 10:00:00 9.5 12 Sudeste 22 Sudeste 0 -- -- 77
2020-03-28 09:00:00 6.6 11 Sudeste 16 Sudeste 0 -- -- 84
2020-03-28 08:00:00 5 6 Sudeste 15 Sudeste 0 -- -- 88
2020-03-28 07:00:00 5.1 10 Sudeste 16 Sudeste 0 -- -- 88
2020-03-28 06:00:00 5.6 8 Sudeste 21 Sur 0 -- -- 89
2020-03-28 05:00:00 4.8 10 Sudeste 18 Sudeste 0 -- -- 87
2020-03-28 04:00:00 2.8 2 Este 10 Sur 0 -- -- 88
2020-03-28 03:00:00 2 0 Calma 4 Nordeste 0 -- -- 92
2020-03-28 02:00:00 2.8 0 Calma 6 Sudeste 0 -- -- 88
2020-03-28 01:00:00 3.9 3 Este 16 Este 0 -- -- 86
2020-03-28 00:00:00 4.9 8 Este 15 Este 0 -- -- 86
2020-03-27 23:00:00 5.4 2 Este 6 Nordeste 0 -- -- 88
2020-03-27 22:00:00 6.5 2 Nordeste 9 Nordeste 0 -- -- 87
2020-03-27 21:00:00 7.3 4 Nordeste 9 Nordeste 0 -- -- 88
2020-03-27 20:00:00 8.1 5 Norte 14 Nordeste 0 -- -- 84
2020-03-27 19:00:00 9.1 9 Nordeste 18 Nordeste 0 -- -- 80
2020-03-27 18:00:00 10.5 9 Norte 19 Nordeste 0 -- -- 75
2020-03-27 17:00:00 10 12 Norte 21 Norte 0 -- -- 80
2020-03-27 16:00:00 11 9 Norte 19 Nordeste 0 -- -- 74
2020-03-27 15:00:00 10.9 9 Norte 17 Norte 0 -- -- 77
2020-03-27 14:00:00 10.8 8 Norte 19 Noroeste 0 -- -- 78
2020-03-27 13:00:00 11.2 8 Norte 21 Este 0 -- -- 78
2020-03-27 12:00:00 11.5 9 Sudeste 18 Sudeste 0 -- -- 74
2020-03-27 11:00:00 7.1 4 Oeste 12 Noroeste 0 -- -- 89
2020-03-27 10:00:00 5 6 Noroeste 17 Noroeste 0 -- -- 98
2020-03-27 09:00:00 4 8 Oeste 23 Oeste 0 -- -- 100
2020-03-27 08:00:00 3.3 9 Oeste 18 Oeste 0 -- -- 99
2020-03-27 07:00:00 2.5 14 Oeste 27 Oeste 0 -- -- 98
2020-03-27 06:00:00 2.9 13 Oeste 24 Oeste 0 -- -- 96
2020-03-27 05:00:00 4.1 13 Oeste 24 Sudoeste 0 -- -- 80
2020-03-27 04:00:00 4.2 14 Oeste 23 Oeste 0 -- -- 85
2020-03-27 03:00:00 4.8 3 Sudoeste 16 Oeste 0 -- -- 94
2020-03-27 02:00:00 5.6 10 Oeste 17 Noroeste 0 -- -- 95
2020-03-27 01:00:00 6.3 10 Oeste 23 Oeste 0 -- -- 93
2020-03-27 00:00:00 7 10 Oeste 28 Oeste 0 -- -- 89
2020-03-26 23:00:00 8.1 12 Oeste 24 Oeste 0 -- -- 84
2020-03-26 22:00:00 9.1 12 Noroeste 23 Oeste 0 -- -- 79
2020-03-26 21:00:00 10.1 12 Oeste 26 Oeste 0 -- -- 72
2020-03-26 20:00:00 11.5 12 Noroeste 35 Oeste 0 -- -- 68
2020-03-26 19:00:00 13.3 15 Oeste 34 Noroeste 0 -- -- 56
2020-03-26 18:00:00 15 18 Oeste 35 Noroeste 0 -- -- 55
2020-03-26 17:00:00 15.5 17 Noroeste 37 Noroeste 0 -- -- 56
2020-03-26 16:00:00 15.7 19 Noroeste 37 Oeste 0 -- -- 56
2020-03-26 15:00:00 15.7 17 Noroeste 32 Noroeste 0 -- -- 58
2020-03-26 14:00:00 15 12 Noroeste 27 Noroeste 0 -- -- 60
2020-03-26 13:00:00 14.4 15 Noroeste 28 Noroeste 0 -- -- 59
2020-03-26 12:00:00 13.6 14 Noroeste 27 Noroeste 0 -- -- 64
2020-03-26 11:00:00 12.5 14 Noroeste 27 Noroeste 0 -- -- 68
2020-03-26 10:00:00 11.2 10 Noroeste 23 Noroeste 0 -- -- 77
2020-03-26 09:00:00 9.9 11 Oeste 26 Oeste 0 -- -- 80
2020-03-26 08:00:00 8.1 9 Oeste 21 Oeste 0 -- -- 87
2020-03-26 07:00:00 7.7 10 Oeste 19 Oeste 0 -- -- 91
2020-03-26 06:00:00 8.1 11 Oeste 25 Oeste 0 -- -- 93
2020-03-26 05:00:00 8.4 7 Noroeste 25 Oeste 0 -- -- 92
2020-03-26 04:00:00 9.1 14 Oeste 23 Noroeste 0 -- -- 92
2020-03-26 03:00:00 9.4 14 Oeste 25 Oeste 0 -- -- 92
2020-03-26 02:00:00 9.2 12 Oeste 30 Oeste 0 -- -- 96
2020-03-26 01:00:00 9.6 16 Oeste 25 Oeste 0 -- -- 96
2020-03-26 00:00:00 9.4 12 Oeste 21 Oeste 0 -- -- 94
2020-03-25 23:00:00 10.1 10 Oeste 22 Oeste 0 -- -- 91
2020-03-25 22:00:00 11.1 15 Oeste 28 Oeste 0 -- -- 86
2020-03-25 21:00:00 11.2 13 Oeste 21 Oeste 0 -- -- 83
2020-03-25 20:00:00 12 9 Oeste 15 Noroeste 0 -- -- 74
2020-03-25 19:00:00 14 9 Noroeste 20 Oeste 0 -- -- 64
2020-03-25 18:00:00 15.1 14 Noroeste 28 Oeste 0 -- -- 60
2020-03-25 17:00:00 14.2 10 Norte 20 Noroeste 0 -- -- 58
2020-03-25 16:00:00 14.4 6 Noroeste 16 Norte 0 -- -- 60
2020-03-25 15:00:00 14.7 7 Noroeste 18 Nordeste 0 -- -- 59
2020-03-25 14:00:00 14 8 Noroeste 19 Norte 0 -- -- 65
2020-03-25 13:00:00 14.1 6 Norte 21 Noroeste 0 -- -- 65
2020-03-25 12:00:00 13.6 7 Noroeste 18 Noroeste 0 -- -- 69
2020-03-25 11:00:00 12.6 8 Noroeste 16 Noroeste 0 -- -- 72
2020-03-25 10:00:00 10.5 0 Calma 6 Norte 0 -- -- 81
2020-03-25 09:00:00 9.4 2 Norte 5 Norte 0 -- -- 81
2020-03-25 08:00:00 8.2 0 Calma 18 Sudoeste 0 -- -- 88
2020-03-25 07:00:00 8.8 9 Sudoeste 14 Sudoeste 0 -- -- 84
2020-03-25 06:00:00 7.5 0 Calma 6 Sudoeste 0 -- -- 92
2020-03-25 05:00:00 7.8 0 Calma 5 Nordeste 0 -- -- 90
2020-03-25 04:00:00 7.5 0 Calma 8 Sur 0 -- -- 90
2020-03-25 03:00:00 7.9 3 Este 13 Sudoeste 0 -- -- 87
2020-03-25 02:00:00 7.4 3 Sudeste 13 Sur 0 -- -- 89
2020-03-25 01:00:00 7.4 8 Sur 10 Sur 0 -- -- 91
2020-03-25 00:00:00 7.4 0 Calma 7 Este 0 -- -- 89
2020-03-24 23:00:00 8.7 3 Este 13 Este 0 -- -- 85
2020-03-24 22:00:00 9.8 8 Este 22 Nordeste 0 -- -- 82
2020-03-24 21:00:00 11.4 12 Nordeste 26 Nordeste 0 -- -- 78
2020-03-24 20:00:00 12.3 11 Nordeste 19 Nordeste 0 -- -- 77
2020-03-24 19:00:00 12.9 10 Nordeste 23 Nordeste 0 -- -- 74
2020-03-24 18:00:00 13.4 13 Nordeste 25 Nordeste 0 -- -- 72
2020-03-24 17:00:00 14.1 14 Nordeste 26 Nordeste 0 -- -- 66
2020-03-24 16:00:00 14.1 10 Nordeste 28 Nordeste 0 -- -- 66
2020-03-24 15:00:00 13.7 13 Este 25 Este 0 -- -- 67
2020-03-24 14:00:00 13.4 17 Este 32 Este 0 -- -- 67
2020-03-24 13:00:00 12.6 15 Nordeste 31 Este 0 -- -- 72
2020-03-24 12:00:00 11.7 16 Nordeste 28 Nordeste 0 -- -- 78
2020-03-24 11:00:00 9.5 14 Nordeste 29 Este 0 -- -- 88
2020-03-24 10:00:00 8.7 17 Nordeste 33 Nordeste 0 -- -- 92
2020-03-24 09:00:00 7.2 5 Nordeste 20 Nordeste 0 -- -- 100
2020-03-24 08:00:00 6.3 9 Nordeste 23 Nordeste 0 -- -- 100
2020-03-24 07:00:00 6.6 14 Nordeste 28 Nordeste 0 -- -- 100
2020-03-24 06:00:00 6.8 10 Nordeste 23 Nordeste 0 -- -- 100
2020-03-24 05:00:00 6.3 8 Nordeste 17 Nordeste 0 -- -- 99
2020-03-24 04:00:00 6 4 Nordeste 13 Nordeste 0 -- -- 98
2020-03-24 03:00:00 5.9 0 Calma 8 Este 0 -- -- 96
2020-03-24 02:00:00 5.8 3 Este 9 Este 0 -- -- 94
2020-03-24 01:00:00 6.7 4 Sudeste 24 Este 0 -- -- 92
2020-03-24 00:00:00 7 12 Este 29 Sudeste 0.8 -- -- 93
2020-03-23 23:00:00 7 13 Sudeste 25 Este 1.6 -- -- 94
2020-03-23 22:00:00 7.7 14 Este 25 Este 1 -- -- 91
2020-03-23 21:00:00 8.4 8 Sur 24 Sudeste 0 -- -- 84
2020-03-23 20:00:00 9.5 4 Norte 16 Nordeste 0 -- -- 73
2020-03-23 19:00:00 10.2 10 Nordeste 18 Norte 0 -- -- 71
2020-03-23 18:00:00 10.6 8 Nordeste 19 Nordeste 0 -- -- 66
2020-03-23 17:00:00 9.4 8 Nordeste 37 Nordeste 0 -- -- 71
2020-03-23 16:00:00 11.7 14 Este 28 Este 0 -- -- 63
2020-03-23 15:00:00 10.6 9 Sudeste 34 Este 0.2 -- -- 78
2020-03-23 14:00:00 10.9 7 Nordeste 18 Este 0 -- -- 70
2020-03-23 13:00:00 10.5 10 Nordeste 20 Nordeste 0 -- -- 72
2020-03-23 12:00:00 10.3 13 Este 23 Este 0 -- -- 77
2020-03-23 11:00:00 9.4 11 Nordeste 21 Este 0 -- -- 81
2020-03-23 10:00:00 7.5 8 Nordeste 16 Nordeste 0 -- -- 90
2020-03-23 09:00:00 7.1 9 Nordeste 14 Nordeste 0 -- -- 96
2020-03-23 08:00:00 5.4 0 Calma -- -- 0 -- -- 96
2020-03-23 07:00:00 6.2 0 Calma 4 Sudeste 0 -- -- 93
2020-03-23 06:00:00 6.7 3 Sudeste 8 Sudeste 0 -- -- 91
2020-03-23 05:00:00 6.7 2 Sudeste 6 Sur 0 -- -- 89
2020-03-23 04:00:00 6.7 3 Sur 7 Sudeste 0 -- -- 88
2020-03-23 03:00:00 6.8 0 Calma -- -- 0 -- -- 90
2020-03-23 02:00:00 7.1 0 Calma 4 Sudeste 0 -- -- 90
2020-03-23 01:00:00 7.4 0 Calma 13 Norte 0.2 -- -- 90
2020-03-23 00:00:00 7.3 5 Norte 12 Norte 0 -- -- 88
2020-03-22 23:00:00 7.2 6 Oeste 10 Noroeste 0 -- -- 87
2020-03-22 22:00:00 7.1 6 Noroeste 13 Noroeste 0 -- -- 88
2020-03-22 21:00:00 7.7 6 Oeste 16 Noroeste 0.4 -- -- 87
2020-03-22 20:00:00 9 8 Noroeste 22 Noroeste 0.4 -- -- 81
2020-03-22 19:00:00 10.1 6 Noroeste 15 Norte 0 -- -- 70
2020-03-22 18:00:00 10 6 Sur 16 Nordeste 0 -- -- 78
2020-03-22 17:00:00 11.1 10 Norte 20 Norte 0 -- -- 61
2020-03-22 16:00:00 10.9 9 Norte 23 Nordeste 0 -- -- 66
2020-03-22 15:00:00 10 15 Nordeste 29 Nordeste 0 -- -- 78
2020-03-22 14:00:00 9.1 7 Nordeste 14 Este 0 -- -- 73
2020-03-22 13:00:00 8.8 7 Este 18 Este 0 -- -- 76
2020-03-22 12:00:00 7.7 8 Este 19 Este 0 -- -- 83
2020-03-22 11:00:00 7.2 9 Este 18 Este 0 -- -- 88
2020-03-22 10:00:00 5.7 8 Este 16 Nordeste 0 -- -- 100
2020-03-22 09:00:00 4.9 4 Nordeste 12 Nordeste 0 -- -- 100
2020-03-22 08:00:00 4.7 3 Este 13 Este 0 -- -- 100
2020-03-22 07:00:00 4.7 4 Este 8 Este 0 -- -- 100
2020-03-22 06:00:00 4.8 3 Este 6 Nordeste 0 -- -- 100
2020-03-22 05:00:00 4.7 0 Calma 6 Nordeste 0 -- -- 100
2020-03-22 04:00:00 4.7 3 Este 14 Sudeste 0 -- -- 100
2020-03-22 03:00:00 4.7 8 Sur 18 Sudeste 0 -- -- 100
2020-03-22 02:00:00 4.7 9 Sudeste 17 Sudeste 0 -- -- 100
2020-03-22 01:00:00 4.8 6 Sudeste 13 Sudeste 0 -- -- 100
2020-03-22 00:00:00 5 6 Sudeste 12 Sudeste 0 -- -- 99
2020-03-21 23:00:00 5 4 Sudeste 8 Este 0 -- -- 99
2020-03-21 22:00:00 4.9 7 Sur 15 Sudeste 0 -- -- 99
2020-03-21 21:00:00 4.6 7 Sur 12 Sur 0 -- -- 97
2020-03-21 20:00:00 5 3 Sudeste 7 Sur 0.6 -- -- 97
2020-03-21 19:00:00 5.2 4 Sur 12 Sudeste 1 -- -- 97
2020-03-21 18:00:00 5.6 9 Sudeste 20 Este 0.6 -- -- 96
2020-03-21 17:00:00 6.2 12 Sudeste 32 Este 0.6 -- -- 97
2020-03-21 16:00:00 6.1 17 Sudeste 32 Sudeste 0.4 -- -- 96
2020-03-21 15:00:00 6.8 17 Sudeste 35 Sur 1 -- -- 96
2020-03-21 14:00:00 7.1 13 Sudeste 30 Sur 1.4 -- -- 94
2020-03-21 13:00:00 8.1 12 Sudeste 26 Sur 0 -- -- 84
2020-03-21 12:00:00 8.4 13 Sudeste 26 Sur 0 -- -- 80
2020-03-21 11:00:00 8.3 13 Sur 24 Sur 0 -- -- 84
2020-03-21 10:00:00 6 10 Sur 23 Sur 0 -- -- 91
2020-03-21 09:00:00 5.4 11 Sur 26 Sur 0 -- -- 96
2020-03-21 08:00:00 4.4 15 Sur 27 Sur 0 -- -- 96
2020-03-21 07:00:00 4.1 6 Sudoeste 13 Sudoeste 0 -- -- 95
2020-03-21 06:00:00 4.6 8 Sudoeste 16 Sudoeste 0.2 -- -- 95
2020-03-21 05:00:00 5.3 7 Sudoeste 16 Sudoeste 0 -- -- 97
2020-03-21 04:00:00 6.1 6 Oeste 22 Oeste 0 -- -- 98
2020-03-21 03:00:00 6.8 9 Oeste 15 Oeste 0.8 -- -- 98
2020-03-21 02:00:00 7.7 4 Noroeste 14 Noroeste 1.4 -- -- 98
2020-03-21 01:00:00 8.1 6 Oeste 53 Sur 5.6 -- -- 98
2020-03-21 00:00:00 9.2 21 Sur 39 Sur 7.2 -- -- 97
2020-03-20 23:00:00 9.7 20 Sudeste 32 Sur 12 -- -- 97
2020-03-20 22:00:00 9.7 15 Sur 32 Sur 5.2 -- -- 96
2020-03-20 21:00:00 10.9 5 Sudeste 14 Sudeste 0.2 -- -- 95
2020-03-20 20:00:00 11 6 Sudeste 15 Sudeste 0 -- -- 92
2020-03-20 19:00:00 11.6 9 Sudeste 18 Sur 0 -- -- 90
2020-03-20 18:00:00 12.4 9 Sudeste 20 Sudeste 0 -- -- 87
2020-03-20 17:00:00 12.3 12 Sur 21 Sudeste 0 -- -- 88
2020-03-20 16:00:00 11.1 12 Sudeste 26 Sudeste 0.8 -- -- 95
2020-03-20 15:00:00 11.5 13 Sudeste 29 Sudeste 0.8 -- -- 87
2020-03-20 14:00:00 13.2 13 Sudeste 27 Sudeste 0 -- -- 78
2020-03-20 13:00:00 12.3 14 Sudeste 22 Sudeste 0 -- -- 79
2020-03-20 12:00:00 12.8 12 Sudeste 22 Sudeste 0 -- -- 80
2020-03-20 11:00:00 10.7 9 Sudeste 19 Sur 0 -- -- 92
2020-03-20 10:00:00 10.2 8 Este 13 Este 0 -- -- 96
2020-03-20 09:00:00 9.6 5 Sur 17 Sudeste 0 -- -- 97
2020-03-20 08:00:00 9.4 9 Sur 15 Sudeste 0 -- -- 96
2020-03-20 07:00:00 9 6 Sur 15 Sudeste 0 -- -- 96
2020-03-20 06:00:00 8.8 9 Sur 14 Sudeste 0 -- -- 94
2020-03-20 05:00:00 9.3 6 Sur 13 Sudeste 0 -- -- 92
2020-03-20 04:00:00 9.9 6 Sudeste 18 Sur 0 -- -- 89
2020-03-20 03:00:00 10.3 8 Sudeste 15 Sudeste 0 -- -- 87
2020-03-20 02:00:00 10.3 5 Sur 13 Sur 0 -- -- 85
2020-03-20 01:00:00 11.2 6 Sur 13 Sur 0 -- -- 82
2020-03-20 00:00:00 11.3 8 Sur 16 Sudeste 0 -- -- 82
2020-03-19 23:00:00 11.9 5 Sur 10 Sur 0 -- -- 78
2020-03-19 22:00:00 11.6 6 Sur 8 Sur 0 -- -- 78
2020-03-19 21:00:00 12.7 4 Sur 6 Sur 0 -- -- 74
2020-03-19 20:00:00 13.5 5 Sur 9 Sur 0 -- -- 70
2020-03-19 19:00:00 14.7 4 Sur 9 Sudeste 0 -- -- 69
2020-03-19 18:00:00 15.8 5 Este 15 Este 0 -- -- 67
2020-03-19 17:00:00 16.5 8 Este 21 Este 0 -- -- 59
2020-03-19 16:00:00 16.7 9 Sudeste 19 Sudeste 0 -- -- 59
2020-03-19 15:00:00 15.7 6 Este 13 Este 0 -- -- 62
2020-03-19 14:00:00 15 5 Nordeste 13 Nordeste 0 -- -- 65
2020-03-19 13:00:00 13.8 4 Nordeste 8 Nordeste 0 -- -- 69
2020-03-19 12:00:00 12.5 6 Este 15 Este 0 -- -- 74
2020-03-19 11:00:00 11.9 6 Este 18 Este 0 -- -- 77
2020-03-19 10:00:00 11.4 8 Nordeste 14 Este 0 -- -- 83
2020-03-19 09:00:00 9.6 4 Sudeste 14 Este 0 -- -- 90
2020-03-19 08:00:00 7.7 5 Este 10 Sudeste 0 -- -- 94
2020-03-19 07:00:00 7.2 0 Calma 5 Sudoeste 0 -- -- 92
2020-03-19 06:00:00 7.8 2 Sur 6 Sur 0 -- -- 90
2020-03-19 05:00:00 9 5 Sur 9 Sudeste 0 -- -- 86
2020-03-19 04:00:00 9.9 5 Sudeste 18 Sudeste 0 -- -- 82
2020-03-19 03:00:00 10.5 14 Sudeste 33 Sudeste 0 -- -- 80
2020-03-19 02:00:00 11.2 15 Sudeste 27 Sudeste 0 -- -- 77
2020-03-19 01:00:00 11.5 9 Sudeste 20 Sudeste 0 -- -- 75
2020-03-19 00:00:00 11.6 8 Sudeste 15 Este 0 -- -- 75
2020-03-18 23:00:00 11.1 5 Sudeste 14 Sudeste 0 -- -- 78
2020-03-18 22:00:00 12.2 5 Sudeste 18 Este 0 -- -- 75
2020-03-18 21:00:00 13.3 7 Nordeste 14 Nordeste 0 -- -- 70
2020-03-18 20:00:00 14.7 6 Este 15 Este 0 -- -- 60
2020-03-18 19:00:00 16.9 8 Este 22 Nordeste 0 -- -- 54
2020-03-18 18:00:00 18 12 Este 24 Este 0 -- -- 52
2020-03-18 17:00:00 18.2 13 Este 26 Este 0 -- -- 55
2020-03-18 16:00:00 17.9 15 Nordeste 29 Este 0 -- -- 56
2020-03-18 15:00:00 17.8 11 Nordeste 26 Este 0 -- -- 60
2020-03-18 14:00:00 17.4 14 Este 29 Sudeste 0 -- -- 60
2020-03-18 13:00:00 16 15 Este 29 Este 0 -- -- 63
2020-03-18 12:00:00 13.7 13 Este 26 Este 0 -- -- 73
2020-03-18 11:00:00 12.5 11 Sudeste 31 Este 0 -- -- 73
2020-03-18 10:00:00 10.7 13 Este 26 Este 0 -- -- 79
2020-03-18 09:00:00 9 9 Este 19 Este 0 -- -- 89
2020-03-18 08:00:00 7.7 6 Este 25 Este 0 -- -- 93
2020-03-18 07:00:00 8.3 13 Este 24 Este 0 -- -- 92
2020-03-18 06:00:00 8.7 12 Nordeste 30 Este 0 -- -- 93
2020-03-18 05:00:00 8.7 5 Este 18 Este 0 -- -- 93
2020-03-18 04:00:00 8.7 10 Este 17 Este 0 -- -- 94
2020-03-18 03:00:00 8.8 5 Sudeste 22 Nordeste 0 -- -- 90
2020-03-18 02:00:00 9 7 Este 24 Este 0 -- -- 86
2020-03-18 01:00:00 9.5 12 Este 24 Este 0 -- -- 82
2020-03-18 00:00:00 8.3 10 Nordeste 19 Nordeste 0 -- -- 78
2020-03-17 23:00:00 8.3 4 Nordeste 15 Norte 0 -- -- 74
2020-03-17 22:00:00 8 4 Nordeste 9 Norte 0 -- -- 73
2020-03-17 21:00:00 8.8 5 Nordeste 27 Este 0.2 -- -- 72
2020-03-17 20:00:00 10.4 8 Este 17 Este 0 -- -- 59
2020-03-17 19:00:00 11.5 13 Este 32 Este 0 -- -- 49
2020-03-17 18:00:00 12.3 19 Este 34 Este 0 -- -- 44
2020-03-17 17:00:00 13 20 Este 32 Sudeste 0 -- -- 46
2020-03-17 16:00:00 12.5 22 Este 40 Este 0 -- -- 51
2020-03-17 15:00:00 11.1 22 Este 41 Este 0 -- -- 64
2020-03-17 14:00:00 9.2 20 Este 38 Este 0 -- -- 73
2020-03-17 13:00:00 8.6 22 Este 39 Este 0 -- -- 77
2020-03-17 12:00:00 6.8 22 Este 36 Este 0 -- -- 90
2020-03-17 11:00:00 5.3 19 Este 35 Sudeste 0 -- -- 99
2020-03-17 10:00:00 3.8 21 Este 37 Este 0.4 -- -- 99
2020-03-17 09:00:00 3.3 21 Este 33 Sudeste 0.6 -- -- 99
2020-03-17 08:00:00 2.7 12 Este 21 Este 0.4 -- -- 99
2020-03-17 07:00:00 2.7 9 Este 20 Este 0 -- -- 99
2020-03-17 06:00:00 2.6 12 Este 22 Este 0 -- -- 98
2020-03-17 05:00:00 2.7 6 Este 15 Este 0 -- -- 99
2020-03-17 04:00:00 2.7 8 Este 14 Este 0.6 -- -- 99
2020-03-17 03:00:00 2.5 3 Nordeste 13 Nordeste 0.6 -- -- 99
2020-03-17 02:00:00 2.7 7 Norte 14 Norte 0 -- -- 98
2020-03-17 01:00:00 2.9 8 Norte 20 Norte 0 -- -- 98
2020-03-17 00:00:00 3.2 10 Norte 19 Norte 0 -- -- 98
2020-03-16 23:00:00 3.5 14 Norte 25 Norte 0.6 -- -- 98
2020-03-16 22:00:00 3.7 12 Norte 34 Noroeste 1.4 -- -- 98
2020-03-16 21:00:00 3.8 18 Noroeste 30 Norte 1.6 -- -- 97
2020-03-16 20:00:00 4 14 Noroeste 41 Noroeste 1.2 -- -- 96
2020-03-16 19:00:00 4.8 17 Norte 44 Norte 0 -- -- 88
2020-03-16 18:00:00 4.9 19 Noroeste 53 Norte 0.2 -- -- 87
2020-03-16 17:00:00 5.5 18 Noroeste 52 Noroeste 0.6 -- -- 83
2020-03-16 16:00:00 7.7 24 Noroeste 49 Noroeste 0 -- -- 58
2020-03-16 15:00:00 8.2 23 Noroeste 47 Noroeste 0 -- -- 57
2020-03-16 14:00:00 8.2 23 Noroeste 43 Noroeste 0 -- -- 57
2020-03-16 13:00:00 7.9 16 Noroeste 38 Noroeste 0 -- -- 60
2020-03-16 12:00:00 6.8 16 Noroeste 34 Noroeste 0 -- -- 63
2020-03-16 11:00:00 5.2 15 Noroeste 34 Oeste 0 -- -- 70
2020-03-16 10:00:00 4 14 Noroeste 29 Noroeste 0 -- -- 79
2020-03-16 09:00:00 2.1 9 Noroeste 25 Oeste 0 -- -- 92
2020-03-16 08:00:00 1.5 11 Oeste 29 Noroeste 0 -- -- 94
2020-03-16 07:00:00 1.2 16 Oeste 32 Noroeste 0 -- -- 92
2020-03-16 06:00:00 1.2 13 Noroeste 30 Oeste 0 -- -- 90
2020-03-16 05:00:00 1.5 13 Oeste 29 Noroeste 0 -- -- 87
2020-03-16 04:00:00 1.7 14 Noroeste 28 Noroeste 0 -- -- 90
2020-03-16 03:00:00 2.4 9 Noroeste 27 Noroeste 0 -- -- 88
2020-03-16 02:00:00 3.7 13 Noroeste 35 Oeste 0 -- -- 82
2020-03-16 01:00:00 5.5 18 Noroeste 38 Noroeste 0 -- -- 68
2020-03-16 00:00:00 7 18 Noroeste 40 Noroeste 0 -- -- 81
2020-03-15 23:00:00 9.3 14 Noroeste 31 Noroeste 0 -- -- 80
2020-03-15 22:00:00 11.4 14 Noroeste 32 Noroeste 0 -- -- 73
2020-03-15 21:00:00 12.6 11 Oeste 28 Oeste 0 -- -- 81
2020-03-15 20:00:00 14 12 Noroeste 30 Oeste 0 -- -- 77
2020-03-15 19:00:00 15.7 7 Sudoeste 22 Sudoeste 0 -- -- 65
2020-03-15 18:00:00 16.6 16 Sudoeste 30 Sudoeste 0 -- -- 62
2020-03-15 17:00:00 18.4 14 Sudoeste 28 Oeste 0 -- -- 58
2020-03-15 16:00:00 18.7 15 Sudoeste 27 Sudoeste 0 -- -- 59
2020-03-15 15:00:00 19.2 13 Sudoeste 26 Sur 0 -- -- 55
2020-03-15 14:00:00 18.6 8 Sudoeste 18 Sudoeste 0 -- -- 53
2020-03-15 13:00:00 18.7 9 Oeste 20 Sur 0 -- -- 59
2020-03-15 12:00:00 18 9 Sur 19 Sudeste 0 -- -- 65
2020-03-15 11:00:00 17.1 8 Sur 17 Sur 0 -- -- 73
2020-03-15 10:00:00 15 4 Sudeste 10 Sudoeste 0 -- -- 86
2020-03-15 09:00:00 10.8 3 Sudeste 8 Sudeste 0 -- -- 97
2020-03-15 08:00:00 9.3 4 Sudeste 10 Sur 0 -- -- 94
2020-03-15 07:00:00 9.9 2 Sudoeste 12 Sur 0 -- -- 90
2020-03-15 06:00:00 10.6 7 Sur 11 Sur 0 -- -- 88
2020-03-15 05:00:00 11.2 4 Sur 10 Sudeste 0 -- -- 77
2020-03-15 04:00:00 10.5 4 Sur 5 Sur 0 -- -- 81
2020-03-15 03:00:00 10.3 0 Calma 3 Sudoeste 0 -- -- 83
2020-03-15 02:00:00 10.4 0 Calma 5 Oeste 0 -- -- 83
2020-03-15 01:00:00 11.8 6 Oeste 8 Noroeste 0 -- -- 77
2020-03-15 00:00:00 12.2 4 Oeste 8 Noroeste 0 -- -- 77
2020-03-14 23:00:00 12.9 6 Noroeste 10 Oeste 0 -- -- 74
2020-03-14 22:00:00 13.8 7 Noroeste 18 Oeste 0 -- -- 73
2020-03-14 21:00:00 14.9 10 Oeste 19 Noroeste 0 -- -- 77
2020-03-14 20:00:00 15.3 8 Sudoeste 15 Sur 0 -- -- 77
2020-03-14 19:00:00 16.4 8 Sudoeste 14 Sudoeste 0 -- -- 73
2020-03-14 18:00:00 17.7 5 Sur 10 Sudeste 0.4 -- -- 73
2020-03-14 17:00:00 18.7 9 Sudeste 17 Sudeste 0 -- -- 62
2020-03-14 16:00:00 19.5 6 Sudeste 20 Este 0 -- -- 60
2020-03-14 15:00:00 21.4 5 Sur 13 Sur 0 -- -- 53
2020-03-14 14:00:00 20.8 5 Sudeste 19 Sudeste 0 -- -- 53
2020-03-14 13:00:00 19.6 9 Sudeste 18 Este 0 -- -- 61
2020-03-14 12:00:00 18.4 9 Este 19 Este 0 -- -- 66
2020-03-14 11:00:00 17.7 6 Sur 13 Este 0 -- -- 69
2020-03-14 10:00:00 15.5 4 Este 12 Sur 0 -- -- 78
2020-03-14 09:00:00 13 8 Sur 15 Sudeste 0 -- -- 88
2020-03-14 08:00:00 10 9 Sur 12 Sur 0 -- -- 98
2020-03-14 07:00:00 8.1 0 Calma 3 Sudoeste 0 -- -- 97
2020-03-14 06:00:00 8.4 2 Oeste 4 Sudoeste 0 -- -- 96
2020-03-14 05:00:00 8.7 0 Calma 6 Oeste 0 -- -- 95
2020-03-14 04:00:00 9.7 3 Noroeste 8 Noroeste 0 -- -- 92
2020-03-14 03:00:00 9.3 6 Oeste 14 Oeste 0 -- -- 81
2020-03-14 02:00:00 9.8 8 Noroeste 12 Noroeste 0 -- -- 74
2020-03-14 01:00:00 10.7 8 Oeste 12 Oeste 0 -- -- 62
2020-03-14 00:00:00 10.4 4 Noroeste 9 Noroeste 0 -- -- 66
2020-03-13 23:00:00 10.3 0 Calma 5 Oeste 0 -- -- 67
2020-03-13 22:00:00 11.6 0 Calma 14 Oeste 0 -- -- 74
2020-03-13 21:00:00 12.7 7 Oeste 12 Oeste 0 -- -- 75
2020-03-13 20:00:00 14.1 6 Oeste 14 Noroeste 0 -- -- 67
2020-03-13 19:00:00 16.2 9 Noroeste 19 Noroeste 0 -- -- 60
2020-03-13 18:00:00 18.8 10 Noroeste 19 Norte 0 -- -- 51
2020-03-13 17:00:00 20.3 8 Noroeste 24 Norte 0 -- -- 49
2020-03-13 16:00:00 20.6 8 Oeste 22 Oeste 0 -- -- 46
2020-03-13 15:00:00 20.2 10 Noroeste 24 Oeste 0 -- -- 47
2020-03-13 14:00:00 20.1 11 Noroeste 23 Noroeste 0 -- -- 46
2020-03-13 13:00:00 19.6 9 Noroeste 16 Oeste 0 -- -- 51
2020-03-13 12:00:00 18.8 6 Nordeste 13 Este 0 -- -- 56
2020-03-13 11:00:00 17.7 6 Sudoeste 16 Oeste 0 -- -- 67
2020-03-13 10:00:00 16.1 4 Sudoeste 12 Sudoeste 0 -- -- 69
2020-03-13 09:00:00 14.5 6 Sudoeste 12 Sudoeste 0 -- -- 78
2020-03-13 08:00:00 10.8 9 Sudoeste 12 Sudoeste 0 -- -- 87
2020-03-13 07:00:00 10 8 Sudoeste 12 Sudoeste 0 -- -- 89
2020-03-13 06:00:00 10.7 9 Sudoeste 12 Sudoeste 0 -- -- 88
2020-03-13 05:00:00 9.7 8 Sudoeste 11 Sudoeste 0 -- -- 88
2020-03-13 04:00:00 10.1 6 Sudoeste 9 Oeste 0 -- -- 91
2020-03-13 03:00:00 11.3 7 Sudoeste 9 Oeste 0 -- -- 85
2020-03-13 02:00:00 11.4 6 Oeste 9 Oeste 0 -- -- 84
2020-03-13 01:00:00 12.2 7 Oeste 9 Oeste 0 -- -- 82
2020-03-13 00:00:00 11.4 5 Oeste 6 Oeste 0 -- -- 84
2020-03-12 23:00:00 12.2 5 Oeste 10 Oeste 0 -- -- 79
2020-03-12 22:00:00 13.6 6 Oeste 12 Oeste 0 -- -- 72
2020-03-12 21:00:00 13.5 5 Sudoeste 10 Sudoeste 0 -- -- 73
2020-03-12 20:00:00 15.1 8 Sudoeste 11 Sudoeste 0 -- -- 64
2020-03-12 19:00:00 17.5 7 Sudoeste 16 Sudoeste 0 -- -- 57
2020-03-12 18:00:00 18 8 Sur 15 Sur 0 -- -- 56
2020-03-12 17:00:00 18.9 9 Oeste 27 Sur 0 -- -- 54
2020-03-12 16:00:00 20.9 16 Sur 35 Sur 0 -- -- 47
2020-03-12 15:00:00 21.1 17 Sur 35 Sur 0 -- -- 45
2020-03-12 14:00:00 20.9 19 Sur 39 Sur 0 -- -- 44
2020-03-12 13:00:00 18.7 22 Sur 44 Sur 0 -- -- 46
2020-03-12 12:00:00 18.7 24 Sur 43 Sur 0 -- -- 45
2020-03-12 11:00:00 16.6 26 Sur 41 Sur 0 -- -- 52
2020-03-12 10:00:00 16.3 26 Sur 46 Sur 0 -- -- 50
2020-03-12 09:00:00 16.1 23 Sur 39 Sur 0 -- -- 49
2020-03-12 08:00:00 16.4 19 Sur 39 Sudeste 0 -- -- 46
2020-03-12 07:00:00 17.2 19 Sur 41 Sur 0 -- -- 43
2020-03-12 06:00:00 17.9 17 Sur 36 Sur 0 -- -- 41
2020-03-12 05:00:00 15.1 8 Sur 17 Sudoeste 0 -- -- 54
2020-03-12 04:00:00 15.2 8 Sudeste 19 Sudeste 0 -- -- 53
2020-03-12 03:00:00 16.5 13 Sudeste 30 Sur 0 -- -- 46
2020-03-12 02:00:00 17.6 15 Sudeste 27 Sur 0 -- -- 42
2020-03-12 01:00:00 18.1 14 Sudeste 30 Sudeste 0 -- -- 43
2020-03-12 00:00:00 18.2 14 Sudeste 26 Sudeste 0 -- -- 46
2020-03-11 23:00:00 16.1 7 Sudeste 13 Sudeste 0 -- -- 50
2020-03-11 22:00:00 17.3 9 Sur 13 Sudeste 0 -- -- 48
2020-03-11 21:00:00 17.7 9 Sur 13 Sudeste 0 -- -- 48
2020-03-11 20:00:00 18.5 9 Sur 13 Sudeste 0 -- -- 47
2020-03-11 19:00:00 20.7 9 Sur 13 Sur 0 -- -- 46
2020-03-11 18:00:00 23.6 8 Sudeste 14 Sudeste 0 -- -- 41
2020-03-11 17:00:00 23.5 9 Sudeste 22 Sudeste 0 -- -- 40
2020-03-11 16:00:00 24.2 11 Sudeste 23 Sudeste 0 -- -- 35
2020-03-11 15:00:00 24 12 Sudeste 23 Sudeste 0 -- -- 36
2020-03-11 14:00:00 24.6 13 Sudeste 25 Sudeste 0 -- -- 35
2020-03-11 13:00:00 23.5 16 Sudeste 25 Sudeste 0 -- -- 39
2020-03-11 12:00:00 23.2 12 Sudeste 24 Sudeste 0 -- -- 41
2020-03-11 11:00:00 21.9 13 Sudeste 24 Sudeste 0 -- -- 43
2020-03-11 10:00:00 20.1 11 Sudeste 19 Sudeste 0 -- -- 44
2020-03-11 09:00:00 17.5 8 Sudeste 14 Sur 0 -- -- 50
2020-03-11 08:00:00 14.1 10 Sur 13 Sudeste 0 -- -- 58
2020-03-11 07:00:00 13.1 3 Sudeste 7 Sudeste 0 -- -- 62
2020-03-11 06:00:00 14.3 4 Sudeste 9 Sudeste 0 -- -- 59
2020-03-11 05:00:00 15.7 7 Sudeste 13 Este 0 -- -- 54
2020-03-11 04:00:00 15.4 6 Sudeste 13 Sudeste 0 -- -- 55
2020-03-11 03:00:00 13.9 6 Sudeste 11 Sudeste 0 -- -- 61
2020-03-11 02:00:00 12.2 4 Sur 6 Sudoeste 0 -- -- 68
2020-03-11 01:00:00 12.1 0 Calma 6 Sudoeste 0 -- -- 69
2020-03-11 00:00:00 14.6 5 Oeste 10 Sur 0 -- -- 60
2020-03-10 23:00:00 15.2 8 Sur 10 Sur 0 -- -- 57
2020-03-10 22:00:00 15.6 8 Sur 10 Sur 0 -- -- 55
2020-03-10 21:00:00 16.6 7 Sur 12 Sudeste 0 -- -- 53
2020-03-10 20:00:00 16 0 Calma 6 Norte 0 -- -- 59
2020-03-10 19:00:00 20.9 3 Nordeste 10 Norte 0 -- -- 43
2020-03-10 18:00:00 22.6 5 Nordeste 11 Nordeste 0 -- -- 40
2020-03-10 17:00:00 23.1 5 Norte 14 Nordeste 0 -- -- 36
2020-03-10 16:00:00 23.3 5 Nordeste 14 Este 0 -- -- 37
2020-03-10 15:00:00 23 7 Norte 18 Sudeste 0 -- -- 37
2020-03-10 14:00:00 22.7 8 Este 20 Este 0 -- -- 36
2020-03-10 13:00:00 21 9 Este 20 Sudeste 0 -- -- 39
2020-03-10 12:00:00 19.7 12 Sudeste 23 Sudeste 0 -- -- 43
2020-03-10 11:00:00 18.5 14 Sudeste 25 Sudeste 0 -- -- 41
2020-03-10 10:00:00 16.6 9 Sudeste 18 Sudeste 0 -- -- 44
2020-03-10 09:00:00 12.8 0 Calma 6 Este 0 -- -- 50
2020-03-10 08:00:00 9.1 0 Calma 4 Nordeste 0 -- -- 58
2020-03-10 07:00:00 9.3 0 Calma 10 Oeste 0 -- -- 57
2020-03-10 06:00:00 8.9 9 Oeste 14 Noroeste 0 -- -- 59
2020-03-10 05:00:00 9 9 Noroeste 14 Oeste 0 -- -- 60
2020-03-10 04:00:00 9.3 10 Noroeste 15 Oeste 0 -- -- 61
2020-03-10 03:00:00 9.4 8 Noroeste 15 Oeste 0 -- -- 63
2020-03-10 02:00:00 10 10 Oeste 18 Noroeste 0 -- -- 65
2020-03-10 01:00:00 10.6 11 Noroeste 18 Noroeste 0 -- -- 66
2020-03-10 00:00:00 10.5 9 Noroeste 19 Noroeste 0 -- -- 62
2020-03-09 23:00:00 11.2 11 Noroeste 21 Noroeste 0 -- -- 55
2020-03-09 22:00:00 11.5 12 Noroeste 18 Noroeste 0 -- -- 51
2020-03-09 21:00:00 11.8 6 Noroeste 15 Noroeste 0 -- -- 46
2020-03-09 20:00:00 13.1 8 Noroeste 19 Noroeste 0 -- -- 39
2020-03-09 19:00:00 15.1 11 Noroeste 31 Noroeste 0 -- -- 34
2020-03-09 18:00:00 16.3 14 Norte 30 Norte 0 -- -- 33
2020-03-09 17:00:00 17 16 Norte 30 Norte 0 -- -- 32
2020-03-09 16:00:00 17.4 15 Norte 31 Noroeste 0 -- -- 29
2020-03-09 15:00:00 17 13 Norte 27 Norte 0 -- -- 26
2020-03-09 14:00:00 16.4 13 Norte 26 Noroeste 0 -- -- 37
2020-03-09 13:00:00 15.1 14 Noroeste 28 Noroeste 0 -- -- 44
2020-03-09 12:00:00 14.3 16 Noroeste 28 Noroeste 0 -- -- 43
2020-03-09 11:00:00 12.4 14 Noroeste 27 Noroeste 0 -- -- 49
2020-03-09 10:00:00 10.7 16 Noroeste 28 Noroeste 0 -- -- 58
2020-03-09 09:00:00 7.9 14 Noroeste 22 Noroeste 0 -- -- 92
2020-03-09 08:00:00 6.2 10 Noroeste 18 Noroeste 0 -- -- 98
2020-03-09 07:00:00 6.6 12 Noroeste 23 Noroeste 0 -- -- 98
2020-03-09 06:00:00 6.5 12 Oeste 24 Oeste 0 -- -- 97
2020-03-09 05:00:00 7.1 15 Oeste 23 Noroeste 0 -- -- 96
2020-03-09 04:00:00 7.7 12 Noroeste 20 Noroeste 0 -- -- 96
2020-03-09 03:00:00 7.9 12 Noroeste 22 Oeste 0 -- -- 95
2020-03-09 02:00:00 7.9 12 Oeste 19 Noroeste 0 -- -- 91
2020-03-09 01:00:00 8.1 12 Oeste 20 Oeste 0 -- -- 84
2020-03-09 00:00:00 8.4 10 Noroeste 20 Noroeste 0 -- -- 81
2020-03-08 23:00:00 8.9 11 Noroeste 19 Oeste 0 -- -- 77
2020-03-08 22:00:00 10 11 Noroeste 20 Oeste 0 -- -- 71
2020-03-08 21:00:00 11.1 10 Noroeste 21 Noroeste 0 -- -- 67
2020-03-08 20:00:00 12.5 6 Oeste 15 Noroeste 0 -- -- 60
2020-03-08 19:00:00 13.6 6 Noroeste 18 Noroeste 0 -- -- 53
2020-03-08 18:00:00 14.7 9 Noroeste 23 Noroeste 0 -- -- 48
2020-03-08 17:00:00 16.4 10 Noroeste 24 Noroeste 0 -- -- 41
2020-03-08 16:00:00 17.6 12 Noroeste 21 Oeste 0 -- -- 29
2020-03-08 15:00:00 18.1 8 Oeste 18 Noroeste 0 -- -- 36
2020-03-08 14:00:00 16.8 11 Norte 22 Norte 0 -- -- 35
2020-03-08 13:00:00 16.5 8 Noroeste 18 Noroeste 0 -- -- 29
2020-03-08 12:00:00 15 6 Noroeste 22 Oeste 0 -- -- 37
2020-03-08 11:00:00 13.4 8 Noroeste 14 Noroeste 0 -- -- 33
2020-03-08 10:00:00 12.1 3 Nordeste 8 Sudoeste 0 -- -- 58
2020-03-08 09:00:00 8.2 5 Noroeste 10 Noroeste 0 -- -- 66
2020-03-08 08:00:00 4.6 6 Oeste 11 Oeste 0 -- -- 71
2020-03-08 07:00:00 3.6 6 Sudoeste 9 Sudoeste 0 -- -- 77
2020-03-08 06:00:00 4.9 5 Oeste 10 Oeste 0 -- -- 71
2020-03-08 05:00:00 5.3 7 Noroeste 9 Oeste 0 -- -- 70
2020-03-08 04:00:00 4.6 4 Sur 7 Sudoeste 0 -- -- 73
2020-03-08 03:00:00 4.6 0 Calma 5 Sudoeste 0 -- -- 74
2020-03-08 02:00:00 5.8 3 Sur 8 Sudoeste 0 -- -- 69
2020-03-08 01:00:00 5.3 0 Calma 4 Sur 0 -- -- 72
2020-03-08 00:00:00 6 0 Calma 10 Norte 0 -- -- 69